KBIH/BIH METAR and TAF weather

Enter ICAO airport designator
Station Type Date Time Source
KBIH METAR 2019/10/18 05:56 UTC NOAA

KBIH 180556Z AUTO 35015G23KT 10SM CLR 11/M06 A2992 RMK AO2 PK WND 34027/0525 SLP096 T01111056 10228 20111 51033


Station Type Date Time Source
KBIH Decoded METAR 2019/10/18 05:56 UTC NOAA

BISHOP AIRPORT, CA, United States (KBIH) 37-22N 118-22W 1253M
Oct 18, 2019 - 01:56 AM EDT / 2019.10.18 0556 UTC
Wind: from the N (350 degrees) at 17 MPH (15 KT) gusting to 26 MPH (23 KT):0
Visibility: 10 mile(s):0
Sky conditions: clear
Temperature: 52.0 F (11.1 C)
Dew Point: 21.9 F (-5.6 C)
Relative Humidity: 30%
Pressure (altimeter): 29.92 in. Hg (1013 hPa)
Pressure tendency: 0.10 inches (3.3 hPa) higher than three hours ago
ob: KBIH 180556Z AUTO 35015G23KT 10SM CLR 11/M06 A2992 RMK AO2 PK WND 34027/0525 SLP096 T01111056 10228 20111 51033
cycle: 6

Station Type Date Time Source
KBIH TAF 2019/10/18 06:22 UTC NOAA

TAF KBIH 180520Z 1806/1906 35020G30KT P6SM FEW120
FM180700 35012G18KT P6SM SKC
FM181000 36010KT P6SM FEW200
FM181700 VRB05KT P6SM FEW200
FM190200 34007KT P6SM SKC

Example: see airport list